Time;durP1;ratioP1;P1;durP2;ratioP2;P2;SDS_P1;SDS_P2;PMS_P1;PMS_P2;Temp;Humidity;BMP_temperature;BMP_pressure;BME280_temperature;BME280_humidity;BME280_pressure;Samples;Min_cycle;Max_cycle;Signal;HPM_P1;HPM_P2
2021/12/05 00:36:17;;;;;;;2.85;2.30;;;;;;;3.09;100.00;97029.91;12827363;23;20024;-84
2021/12/05 01:03:34;;;;;;;7.35;2.78;;;;;;;2.94;100.00;97085.97;12855605;23;20009;-85
2021/12/05 01:21:05;;;;;;;5.18;2.90;;;;;;;2.60;100.00;97136.81;12878598;22;20020;-84
2021/12/05 02:43:13;;;;;;;5.93;2.67;;;;;;;1.53;100.00;97129.16;12804530;23;20024;-79
2021/12/05 02:48:24;;;;;;;4.70;2.60;;;;;;;1.56;100.00;97135.75;12800625;23;20036;-80
2021/12/05 03:04:31;;;;;;;6.03;2.70;;;;;;;1.40;100.00;97132.56;12887821;23;20123;-80
2021/12/05 03:09:36;;;;;;;7.78;2.53;;;;;;;1.39;100.00;97123.88;12896831;23;20009;-83
2021/12/05 03:15:14;;;;;;;7.90;2.95;;;;;;;1.29;100.00;97134.63;12875987;23;20016;-80
2021/12/05 03:20:18;;;;;;;8.07;3.13;;;;;;;1.38;100.00;97134.75;12843598;23;20024;-81
2021/12/05 03:25:41;;;;;;;;;;;;;;;;;;;;;
2021/12/05 03:30:47;;;;;;;7.80;3.03;;;;;;;1.28;100.00;97127.75;12861789;22;20001;-81
2021/12/05 03:36:06;;;;;;;5.18;3.03;;;;;;;1.17;100.00;97125.56;12890361;22;20035;-81
2021/12/05 03:41:10;;;;;;;6.00;3.10;;;;;;;1.07;100.00;97126.53;12860323;22;20004;-82
2021/12/05 03:46:12;;;;;;;5.28;2.53;;;;;;;1.00;100.00;97139.31;12876443;23;20016;-79
2021/12/05 03:51:18;;;;;;;5.10;2.10;;;;;;;0.80;100.00;97138.56;12895798;23;20051;-81
2021/12/05 03:56:31;;;;;;;10.15;3.08;;;;;;;0.73;100.00;97155.81;12883607;22;20028;-83
2021/12/05 04:01:37;;;;;;;4.88;2.47;;;;;;;0.65;100.00;97161.78;12854512;22;20020;-81
2021/12/05 04:12:54;;;;;;;6.57;3.47;;;;;;;0.48;100.00;97176.25;12860715;23;20020;-81
2021/12/05 04:17:58;;;;;;;6.35;3.40;;;;;;;0.49;100.00;97174.41;12842711;23;20024;-81
2021/12/05 04:23:24;;;;;;;8.02;3.97;;;;;;;0.56;100.00;97180.91;12868526;23;20024;-80
2021/12/05 04:28:27;;;;;;;5.40;2.92;;;;;;;0.60;100.00;97175.03;12871025;23;20044;-80
2021/12/05 04:34:33;;;;;;;;;;;;;;;;;;;;;
2021/12/05 04:39:37;;;;;;;6.40;3.80;;;;;;;0.73;100.00;97184.88;12874796;23;20051;-80
2021/12/05 04:44:55;;;;;;;5.55;3.55;;;;;;;0.76;100.00;97192.25;12854032;23;20076;-81
2021/12/05 04:50:25;;;;;;;5.53;3.53;;;;;;;0.81;100.00;97208.78;12850031;23;20075;-81
2021/12/05 04:55:58;;;;;;;4.57;3.35;;;;;;;0.88;100.00;97216.38;12746331;23;20044;-81
2021/12/05 05:01:17;;;;;;;6.70;4.03;;;;;;;0.83;100.00;97227.81;12749484;23;20100;-80
2021/12/05 05:06:46;;;;;;;6.47;3.90;;;;;;;0.87;100.00;97237.78;12764872;23;19993;-82
2021/12/05 05:11:56;;;;;;;8.05;3.40;;;;;;;1.09;100.00;97238.75;12778562;23;20013;-80
2021/12/05 05:17:08;;;;;;;3.42;2.70;;;;;;;1.07;100.00;97240.13;12797950;23;20033;-80
2021/12/05 05:22:58;;;;;;;;;;;;;;;;;;;;;
2021/12/05 05:50:14;;;;;;;4.00;2.03;;;;;;;0.74;100.00;97208.38;12820819;23;20029;-86
2021/12/05 06:01:08;;;;;;;2.83;1.80;;;;;;;0.52;100.00;97227.41;12831209;23;20084;-82
2021/12/05 06:12:24;;;;;;;3.90;2.30;;;;;;;0.36;100.00;97231.28;12859151;23;20310;-80
2021/12/05 06:17:26;;;;;;;5.93;2.70;;;;;;;0.37;100.00;97235.53;12873804;23;20017;-78
2021/12/05 06:22:26;;;;;;;4.07;2.70;;;;;;;0.30;100.00;97229.78;12899442;23;20009;-81
2021/12/05 06:27:28;;;;;;;3.40;2.35;;;;;;;0.20;100.00;97222.00;12904509;22;20013;-81
2021/12/05 06:47:45;;;;;;;7.65;3.00;;;;;;;-0.18;100.00;97240.34;12915210;22;20040;-80
2021/12/05 06:58:45;;;;;;;4.82;3.63;;;;;;;-0.44;100.00;97260.06;12917737;22;20012;-82
2021/12/05 07:03:49;;;;;;;5.60;3.60;;;;;;;-0.54;100.00;97263.59;12900139;22;20009;-85
2021/12/05 07:09:15;;;;;;;7.38;4.32;;;;;;;-0.74;100.00;97272.41;12762789;22;20051;-80
2021/12/05 07:42:48;;;;;;;13.73;6.53;;;;;;;-0.61;100.00;97329.75;12880534;23;20039;-82
2021/12/05 07:48:47;;;;;;;12.90;6.10;;;;;;;-0.51;100.00;97336.81;12885696;23;20103;-82
2021/12/05 07:54:11;;;;;;;13.23;5.88;;;;;;;-0.52;100.00;97324.69;12890213;23;20043;-82
2021/12/05 08:16:25;;;;;;;13.40;7.05;;;;;;;-0.19;100.00;97333.66;12886531;23;20090;-81
2021/12/05 08:21:26;;;;;;;8.90;5.55;;;;;;;-0.19;100.00;97346.06;12887668;23;20012;-81
2021/12/05 08:26:32;;;;;;;11.57;6.43;;;;;;;-0.24;100.00;97349.53;12898463;22;20112;-81
2021/12/05 09:51:13;;;;;;;11.57;6.03;;;;;;;1.47;100.00;97299.56;12827196;23;20020;-83
2021/12/05 10:43:47;;;;;;;6.32;5.20;;;;;;;2.83;100.00;97281.47;12692567;23;20021;-82
2021/12/05 10:49:19;;;;;;;9.63;4.97;;;;;;;2.78;100.00;97271.00;12819602;23;20489;-81
2021/12/05 10:54:39;;;;;;;9.18;4.53;;;;;;;2.83;100.00;97263.75;12787670;23;20055;-82
2021/12/05 10:59:46;;;;;;;5.10;3.65;;;;;;;2.86;100.00;97259.72;12757801;23;20069;-85
2021/12/05 11:16:56;;;;;;;5.88;3.47;;;;;;;4.17;100.00;97259.53;12788305;23;20071;-82
2021/12/05 11:22:20;;;;;;;;;;;;;;;;;;;;;
2021/12/05 11:39:27;;;;;;;6.78;2.92;;;;;;;5.14;100.00;97254.94;12780920;23;20021;-74
2021/12/05 11:51:18;;;;;;;3.60;2.50;;;;;;;4.36;100.00;97248.66;12789151;23;19916;-84
2021/12/05 11:57:37;;;;;;;5.30;2.80;;;;;;;4.18;100.00;97250.47;12789732;23;20009;-82
2021/12/05 12:03:38;;;;;;;7.50;3.07;;;;;;;4.56;100.00;97250.75;12765985;23;20029;-82
2021/12/05 12:09:19;;;;;;;4.45;2.78;;;;;;;4.27;100.00;97246.75;12851024;23;20029;-85
2021/12/05 12:14:27;;;;;;;5.55;2.67;;;;;;;5.56;100.00;97247.25;12841320;23;20025;-83
2021/12/05 12:19:36;;;;;;;2.90;1.83;;;;;;;5.94;100.00;97244.69;12853038;23;20000;-82
2021/12/05 12:31:20;;;;;;;;;;;;;;;;;;;;;
2021/12/05 12:37:07;;;;;;;4.75;2.10;;;;;;;5.51;100.00;97244.75;12659054;23;20014;-84
2021/12/05 12:42:29;;;;;;;4.32;2.63;;;;;;;5.87;100.00;97247.03;12730853;23;20014;-84
2021/12/05 13:12:09;;;;;;;4.72;1.80;;;;;;;4.28;100.00;97266.91;12727531;23;20024;-83
2021/12/05 13:17:55;;;;;;;3.15;1.70;;;;;;;4.04;100.00;97261.19;12813532;23;20071;-83
2021/12/05 13:23:37;;;;;;;3.60;1.90;;;;;;;3.98;100.00;97265.84;12848518;23;20005;-83
2021/12/05 13:29:19;;;;;;;3.45;2.22;;;;;;;3.95;100.00;97260.38;12799840;23;20028;-83
2021/12/05 13:35:03;;;;;;;;;;;;;;;;;;;;;
2021/12/05 13:41:34;;;;;;;;;;;;;;;;;;;;;
2021/12/05 13:47:16;;;;;;;6.95;1.90;;;;;;;4.15;100.00;97273.13;12775526;23;20021;-82
2021/12/05 13:53:15;;;;;;;4.50;1.98;;;;;;;3.88;100.00;97281.25;12782083;23;20040;-82
2021/12/05 14:04:56;;;;;;;5.85;2.83;;;;;;;3.72;100.00;97296.75;12581992;23;20029;-83
2021/12/05 14:16:55;;;;;;;;;;;;;;;;;;;;;
2021/12/05 14:22:49;;;;;;;4.50;2.65;;;;;;;3.58;100.00;97296.81;12663565;23;20021;-82
2021/12/05 14:34:09;;;;;;;7.47;4.47;;;;;;;3.58;100.00;97309.31;12847152;23;20017;-82
2021/12/05 14:39:59;;;;;;;3.83;3.13;;;;;;;3.55;100.00;97320.50;12850089;23;20035;-83
2021/12/05 14:45:40;;;;;;;;;;;;;;;;;;;;;
2021/12/05 14:51:36;;;;;;;3.88;2.90;;;;;;;3.33;100.00;97339.81;12807168;23;20013;-84
2021/12/05 14:57:19;;;;;;;6.63;4.03;;;;;;;3.37;100.00;97341.56;12725782;23;20088;-85
2021/12/05 15:03:46;;;;;;;5.10;2.67;;;;;;;3.33;100.00;97347.78;12787044;23;20022;-84
2021/12/05 15:15:25;;;;;;;6.22;4.47;;;;;;;3.32;100.00;97362.13;12855789;23;20025;-84
2021/12/05 15:20:49;;;;;;;6.95;3.65;;;;;;;3.26;100.00;97377.34;12790217;23;20020;-84
2021/12/05 15:27:28;;;;;;;5.95;3.88;;;;;;;3.13;100.00;97380.81;12850413;23;20088;-85
2021/12/05 15:33:28;;;;;;;;;;;;;;;;;;;;;
2021/12/05 15:39:35;;;;;;;4.40;3.50;;;;;;;2.86;100.00;97400.16;12832534;23;20020;-85
2021/12/05 16:16:08;;;;;;;10.23;5.35;;;;;;;2.54;100.00;97424.84;12835220;23;20008;-84
2021/12/05 16:21:59;;;;;;;8.85;4.85;;;;;;;2.54;100.00;97430.91;12852807;23;20013;-86
2021/12/05 16:32:55;;;;;;;9.60;6.13;;;;;;;2.37;100.00;97449.22;12843254;23;20009;-86
2021/12/05 16:38:14;;;;;;;;;;;;;;;;;;;;;
2021/12/05 17:15:58;;;;;;;9.75;7.03;;;;;;;1.39;100.00;97472.03;12738604;23;20014;-84
2021/12/05 17:22:18;;;;;;;9.93;6.50;;;;;;;1.28;100.00;97484.59;12546693;23;20926;-86
2021/12/05 17:44:18;;;;;;;8.50;3.75;;;;;;;1.31;100.00;97513.09;12786955;23;20057;-81
2021/12/05 17:50:06;;;;;;;9.68;4.65;;;;;;;1.31;100.00;97525.53;12770052;23;20033;-84
2021/12/05 18:29:40;;;;;;;6.60;4.65;;;;;;;1.28;100.00;97561.25;12778562;23;20013;-82
2021/12/05 18:35:37;;;;;;;7.72;4.90;;;;;;;1.33;100.00;97570.97;12793681;23;20017;-81
2021/12/05 18:40:51;;;;;;;6.45;4.50;;;;;;;1.32;100.00;97569.41;12765954;23;20001;-85
2021/12/05 18:46:50;;;;;;;7.15;5.00;;;;;;;1.29;100.00;97570.75;12762949;23;20074;-88
2021/12/05 18:52:52;;;;;;;8.25;5.50;;;;;;;1.26;100.00;97567.84;12782911;23;20021;-83
2021/12/05 18:59:06;;;;;;;9.10;6.22;;;;;;;1.13;100.00;97567.47;12894132;23;20098;-85
2021/12/05 19:16:57;;;;;;;9.27;6.57;;;;;;;0.46;100.00;97584.13;12899657;23;20017;-82
2021/12/05 19:27:53;;;;;;;9.65;7.15;;;;;;;0.25;100.00;97594.78;12915807;22;20064;-84
2021/12/05 19:33:25;;;;;;;11.45;8.25;;;;;;;0.21;100.00;97611.44;12914095;22;20001;-85
2021/12/05 19:39:19;;;;;;;12.20;7.22;;;;;;;0.22;100.00;97608.53;12906685;22;20032;-86
2021/12/05 19:44:51;;;;;;;22.27;10.82;;;;;;;0.19;100.00;97617.00;12916567;22;20012;-87
2021/12/05 19:50:27;;;;;;;11.82;7.68;;;;;;;0.17;100.00;97623.59;12894753;22;20008;-82
2021/12/05 19:55:42;;;;;;;8.85;6.32;;;;;;;0.09;100.00;97643.44;12794176;23;20013;-82
2021/12/05 20:18:35;;;;;;;10.27;7.32;;;;;;;0.27;100.00;97636.72;12852687;23;20048;-85
2021/12/05 20:25:12;;;;;;;9.60;6.70;;;;;;;0.20;100.00;97644.19;12850290;23;20068;-83
2021/12/05 20:31:13;;;;;;;16.20;9.93;;;;;;;0.29;100.00;97650.47;12727868;23;20021;-83
2021/12/05 20:36:51;;;;;;;12.45;8.82;;;;;;;0.26;100.00;97650.97;12797546;23;20134;-82
2021/12/05 20:42:25;;;;;;;;;;;;;;;;;;;;;
2021/12/05 20:47:55;;;;;;;14.65;10.27;;;;;;;0.22;100.00;97655.25;12844393;23;20008;-83
2021/12/05 20:53:33;;;;;;;15.45;11.52;;;;;;;0.18;100.00;97655.00;12887744;23;20071;-83
2021/12/05 20:58:46;;;;;;;17.17;12.68;;;;;;;0.11;100.00;97654.50;12890256;22;20136;-87
2021/12/05 21:04:47;;;;;;;20.40;14.27;;;;;;;0.13;100.00;97659.50;12847144;22;20029;-87
2021/12/05 21:10:51;;;;;;;17.48;11.45;;;;;;;-0.01;100.00;97664.56;12728022;23;20033;-84
2021/12/05 21:16:43;;;;;;;20.65;12.93;;;;;;;-0.30;100.00;97662.53;12725973;23;20010;-85
2021/12/05 21:28:01;;;;;;;;;;;;;;;;;;;;;
2021/12/05 21:33:33;;;;;;;16.55;12.25;;;;;;;-0.60;100.00;97665.22;12897974;23;20008;-84
2021/12/05 21:39:19;;;;;;;;;;;;;;;;;;;;;
2021/12/05 21:56:31;;;;;;;22.58;14.30;;;;;;;-1.05;100.00;97674.72;12771723;23;20025;-84
2021/12/05 22:02:21;;;;;;;23.13;14.55;;;;;;;-1.25;100.00;97674.69;12709472;23;20021;-80
2021/12/05 22:07:25;;;;;;;17.73;12.45;;;;;;;-1.38;100.00;97677.81;12762779;23;20097;-80
2021/12/05 22:12:32;;;;;;;19.13;12.15;;;;;;;-1.51;100.00;97681.75;12738399;23;20125;-79
2021/12/05 22:17:34;;;;;;;21.90;14.50;;;;;;;-1.49;100.00;97687.53;12752899;23;20036;-80
2021/12/05 22:22:41;;;;;;;26.48;17.13;;;;;;;-1.24;100.00;97705.22;12734325;23;20017;-84
2021/12/05 22:27:41;;;;;;;40.17;20.73;;;;;;;-1.25;100.00;97712.34;12731281;23;20018;-83
2021/12/05 22:32:42;;;;;;;31.25;17.90;;;;;;;-1.29;100.00;97715.72;12753938;23;20041;-81
2021/12/05 22:38:02;;;;;;;51.38;23.27;;;;;;;-1.30;100.00;97724.69;12735277;23;20032;-82
2021/12/05 22:43:04;;;;;;;29.48;18.88;;;;;;;-1.44;100.00;97729.66;12755699;23;20013;-83
2021/12/05 22:48:10;;;;;;;51.47;23.98;;;;;;;-1.55;100.00;97730.69;12759970;23;20020;-82
2021/12/05 23:00:12;;;;;;;30.88;19.75;;;;;;;-1.71;100.00;97753.50;12584858;23;20027;-84
2021/12/05 23:30:25;;;;;;;49.95;23.95;;;;;;;-1.41;100.00;97799.41;12829912;23;20021;-82
2021/12/05 23:35:45;;;;;;;55.55;25.25;;;;;;;-1.27;100.00;97803.16;12812442;23;20093;-83
2021/12/05 23:46:31;;;;;;;70.90;28.73;;;;;;;-1.32;100.00;97808.41;12801096;23;20021;-82
2021/12/05 23:52:20;;;;;;;92.75;31.70;;;;;;;-1.28;100.00;97812.09;12790867;23;20016;-83
